createdAt,value
2022-10-03T00:00:59.267Z,10.72
2022-10-03T00:06:36.510Z,10.77
2022-10-03T00:12:04.061Z,10.77
2022-10-03T00:17:37.900Z,10.75
2022-10-03T00:23:08.865Z,10.79
2022-10-03T00:29:19.028Z,10.67
2022-10-03T00:34:52.733Z,10.81
2022-10-03T00:40:47.784Z,10.71
2022-10-03T00:46:24.987Z,10.85
2022-10-03T00:52:29.754Z,10.63
2022-10-03T00:58:29.175Z,10.71
2022-10-03T01:04:06.160Z,10.76
2022-10-03T01:10:14.258Z,10.81
2022-10-03T01:15:56.353Z,10.78
2022-10-03T01:22:02.107Z,10.69
2022-10-03T01:27:59.274Z,10.68
2022-10-03T01:33:44.581Z,10.65
2022-10-03T01:39:15.820Z,10.68
2022-10-03T01:44:43.749Z,10.83
2022-10-03T01:50:05.603Z,10.84
2022-10-03T01:55:36.297Z,10.85
2022-10-03T02:01:01.207Z,10.85
2022-10-03T02:06:35.390Z,10.79
2022-10-03T02:12:04.172Z,10.77
2022-10-03T02:17:58.305Z,10.73
2022-10-03T02:23:26.225Z,10.83
2022-10-03T02:29:03.252Z,10.90
2022-10-03T02:34:39.950Z,10.86
2022-10-03T02:40:20.733Z,10.87
2022-10-03T02:46:10.564Z,10.87
2022-10-03T02:51:51.451Z,10.77
2022-10-03T02:57:50.803Z,10.86
2022-10-03T03:03:38.963Z,10.76
2022-10-03T03:09:19.101Z,10.85
2022-10-03T03:15:25.949Z,10.90
2022-10-03T03:21:10.603Z,10.97
2022-10-03T03:26:50.655Z,10.93
2022-10-03T03:32:29.184Z,10.94
2022-10-03T03:37:54.020Z,10.96
2022-10-03T03:43:24.853Z,11.03
2022-10-03T03:48:53.969Z,10.98
2022-10-03T03:54:36.431Z,11.05
2022-10-03T04:00:22.458Z,10.97
2022-10-03T04:06:08.642Z,10.93
2022-10-03T04:11:42.966Z,10.99
2022-10-03T04:17:36.184Z,10.94
2022-10-03T04:23:06.651Z,10.96
2022-10-03T04:29:06.445Z,10.95
2022-10-03T04:34:33.934Z,11.05
2022-10-03T04:40:08.461Z,11.11
2022-10-03T04:45:45.808Z,10.95
2022-10-03T04:51:54.612Z,11.04
2022-10-03T04:57:47.252Z,11.01
2022-10-03T05:03:17.139Z,11.04
2022-10-03T05:08:55.523Z,11.04
2022-10-03T05:14:28.384Z,11.09
2022-10-03T05:20:02.368Z,10.99
2022-10-03T05:25:48.641Z,11.15
2022-10-03T05:31:44.314Z,11.08
2022-10-03T05:37:09.227Z,11.11
2022-10-03T05:42:49.431Z,11.23
2022-10-03T05:48:27.895Z,11.34
2022-10-03T05:54:20.750Z,11.33
2022-10-03T06:00:13.583Z,11.38
2022-10-03T06:05:58.264Z,11.56
2022-10-03T06:12:00.035Z,11.60
2022-10-03T06:17:46.767Z,11.86
2022-10-03T06:23:14.322Z,12.07
2022-10-03T06:28:54.847Z,12.09
2022-10-03T06:34:25.439Z,12.04
2022-10-03T06:40:16.491Z,12.04
2022-10-03T06:45:59.620Z,11.90
2022-10-03T06:51:38.437Z,11.90
2022-10-03T06:57:32.766Z,11.79
2022-10-03T07:03:31.477Z,11.76
2022-10-03T07:09:38.120Z,11.90
2022-10-03T07:16:02.219Z,12.06
2022-10-03T07:21:27.578Z,12.55
2022-10-03T07:27:24.559Z,12.52
2022-10-03T07:33:16.757Z,12.41
2022-10-03T07:38:47.844Z,12.50
2022-10-03T07:44:34.851Z,12.80
2022-10-03T07:50:18.905Z,12.93
2022-10-03T07:56:09.349Z,12.92
2022-10-03T08:01:40.992Z,12.75
2022-10-03T08:07:11.127Z,12.90
2022-10-03T08:12:51.802Z,12.88
2022-10-03T08:18:43.991Z,12.91
2022-10-03T08:24:27.105Z,13.05
2022-10-03T08:30:11.987Z,13.46
2022-10-03T08:35:55.567Z,13.38
2022-10-03T08:41:44.486Z,13.27
2022-10-03T08:47:27.864Z,13.49
2022-10-03T08:53:08.746Z,13.31
2022-10-03T08:58:54.603Z,13.12
2022-10-03T09:04:22.137Z,13.13
2022-10-03T09:10:14.515Z,13.06
2022-10-03T09:15:45.547Z,13.23
2022-10-03T09:21:13.395Z,13.26
2022-10-03T09:27:12.771Z,13.25
2022-10-03T09:32:43.415Z,13.14
2022-10-03T09:38:38.735Z,12.83
2022-10-03T09:44:09.326Z,12.95
2022-10-03T09:50:05.363Z,13.16
2022-10-03T09:55:44.842Z,13.57
2022-10-03T10:01:09.672Z,13.85
2022-10-03T10:07:08.916Z,14.18
2022-10-03T10:12:43.617Z,14.04
2022-10-03T10:18:59.669Z,13.77
2022-10-03T10:24:30.333Z,13.85
2022-10-03T10:30:36.944Z,13.79
2022-10-03T10:36:43.950Z,13.64
2022-10-03T10:42:30.447Z,14.39
2022-10-03T10:48:19.062Z,14.08
2022-10-03T10:53:59.070Z,13.96
2022-10-03T11:00:12.205Z,13.96
2022-10-03T11:05:43.258Z,13.93
2022-10-03T11:11:26.849Z,13.66
2022-10-03T11:17:17.702Z,14.25
2022-10-03T11:23:01.073Z,14.07
2022-10-03T11:28:38.521Z,14.50
2022-10-03T11:34:37.849Z,14.19
2022-10-03T11:40:27.313Z,13.84
2022-10-03T11:46:03.415Z,14.36
2022-10-03T11:51:43.637Z,14.24
2022-10-03T11:57:26.972Z,14.73
2022-10-03T12:03:16.588Z,14.54
2022-10-03T12:08:42.385Z,14.63
2022-10-03T12:14:19.810Z,14.66
2022-10-03T12:19:53.401Z,14.75
2022-10-03T12:25:20.387Z,14.63
2022-10-03T12:30:47.983Z,14.77
2022-10-03T12:36:14.119Z,14.96
2022-10-03T12:42:06.269Z,15.21
2022-10-03T12:47:56.681Z,15.46
2022-10-03T12:53:18.632Z,15.93
2022-10-03T12:58:44.176Z,15.95
2022-10-03T13:04:27.761Z,16.06
2022-10-03T13:10:01.612Z,15.95
2022-10-03T13:15:42.097Z,15.45
2022-10-03T13:27:20.216Z,15.89
2022-10-03T13:32:47.241Z,15.09
2022-10-03T13:38:11.853Z,15.11
2022-10-03T13:43:38.517Z,14.98
2022-10-03T13:49:02.752Z,14.20
2022-10-03T13:54:54.807Z,14.67
2022-10-03T14:00:21.020Z,14.77
2022-10-03T14:06:18.003Z,14.58
2022-10-03T14:12:01.491Z,14.68
2022-10-03T14:17:51.507Z,14.51
2022-10-03T14:23:16.004Z,14.54
2022-10-03T14:28:47.910Z,14.40
2022-10-03T14:34:28.006Z,14.56
2022-10-03T14:40:14.693Z,14.31
2022-10-03T14:45:52.472Z,14.21
2022-10-03T14:51:29.910Z,14.34
2022-10-03T14:56:53.919Z,14.31
2022-10-03T15:02:37.479Z,14.05
2022-10-03T15:07:59.405Z,14.03
2022-10-03T15:13:24.956Z,13.96
2022-10-03T15:18:53.817Z,13.93
2022-10-03T15:24:25.301Z,13.75
2022-10-03T15:29:54.157Z,13.58
2022-10-03T15:35:24.839Z,13.47
2022-10-03T15:40:52.763Z,13.37
2022-10-03T15:46:33.971Z,13.16
2022-10-03T15:51:59.755Z,13.14
2022-10-03T15:57:29.541Z,12.92
2022-10-03T16:03:00.428Z,12.74
2022-10-03T16:08:28.077Z,12.66
2022-10-03T16:14:14.941Z,12.58
2022-10-03T16:19:48.529Z,12.36
2022-10-03T16:25:21.708Z,12.30
2022-10-03T16:30:56.944Z,12.21
2022-10-03T16:36:20.279Z,12.09
2022-10-03T16:41:42.850Z,12.06
2022-10-03T16:47:06.791Z,11.93
2022-10-03T16:52:35.559Z,11.90
2022-10-03T16:58:04.324Z,11.78
2022-10-03T17:03:32.752Z,11.73
2022-10-03T17:08:59.220Z,11.61
2022-10-03T17:14:22.364Z,11.42
2022-10-03T17:19:58.156Z,11.47
2022-10-03T17:25:49.392Z,11.31
2022-10-03T17:31:24.980Z,11.32
2022-10-03T17:36:55.949Z,11.32
2022-10-03T17:42:37.050Z,11.22
2022-10-03T17:48:09.224Z,11.05
2022-10-03T17:53:36.598Z,11.07
2022-10-03T17:59:07.832Z,10.98
2022-10-03T18:04:42.013Z,10.94
2022-10-03T18:10:07.368Z,10.86
2022-10-03T18:16:06.343Z,10.73
2022-10-03T18:21:42.148Z,10.66
2022-10-03T18:27:16.378Z,10.59
2022-10-03T18:32:39.986Z,10.58
2022-10-03T18:38:14.750Z,10.58
2022-10-03T18:43:38.061Z,10.56
2022-10-03T18:49:31.778Z,10.55
2022-10-03T18:55:04.815Z,10.45
2022-10-03T19:00:31.140Z,10.50
2022-10-03T19:06:04.270Z,10.44
2022-10-03T19:11:39.310Z,10.44
2022-10-03T19:17:12.268Z,10.43
2022-10-03T19:22:39.753Z,10.34
2022-10-03T19:28:25.765Z,10.41
2022-10-03T19:33:52.010Z,10.29
2022-10-03T19:39:17.412Z,10.34
2022-10-03T19:44:40.245Z,10.31
2022-10-03T19:50:12.978Z,10.29
2022-10-03T19:55:35.697Z,10.30
2022-10-03T20:01:00.180Z,10.27
2022-10-03T20:06:29.776Z,10.28
2022-10-03T20:12:02.692Z,10.29
2022-10-03T20:17:25.092Z,10.30
2022-10-03T20:22:47.058Z,10.30
2022-10-03T20:28:22.731Z,10.27
2022-10-03T20:33:44.731Z,10.40
2022-10-03T20:39:28.291Z,10.64
2022-10-03T20:45:01.424Z,10.82
2022-10-03T20:50:25.727Z,10.98
2022-10-03T20:55:50.199Z,11.02
2022-10-03T21:01:17.441Z,11.19
2022-10-03T21:06:57.960Z,11.17
2022-10-03T21:12:25.173Z,11.15
2022-10-03T21:17:49.005Z,11.22
2022-10-03T21:23:20.466Z,11.23
2022-10-03T21:28:42.336Z,11.33
2022-10-03T21:34:16.300Z,11.26
2022-10-03T21:40:14.326Z,11.16
2022-10-03T21:45:53.643Z,11.21
2022-10-03T21:51:28.720Z,11.26
2022-10-03T21:57:01.238Z,11.25
2022-10-03T22:02:58.429Z,11.18
2022-10-03T22:08:29.018Z,11.25
2022-10-03T22:13:56.830Z,11.24
2022-10-03T22:19:25.875Z,11.17
2022-10-03T22:25:00.022Z,11.14
2022-10-03T22:30:22.449Z,11.17
2022-10-03T22:35:55.272Z,11.10
2022-10-03T22:41:24.057Z,11.13
2022-10-03T22:46:50.781Z,11.16
2022-10-03T22:52:24.206Z,10.77
2022-10-03T22:57:46.858Z,11.08
2022-10-03T23:03:14.492Z,11.14
2022-10-03T23:08:36.247Z,11.21
2022-10-03T23:14:06.412Z,11.19
2022-10-03T23:19:46.218Z,11.13
2022-10-03T23:25:24.508Z,11.08
2022-10-03T23:30:50.554Z,11.15
2022-10-03T23:36:22.184Z,11.18
2022-10-03T23:41:45.241Z,11.18
2022-10-03T23:47:11.655Z,11.20
2022-10-03T23:52:47.251Z,11.11
2022-10-03T23:58:20.641Z,11.15
